Time;durP1;ratioP1;P1;durP2;ratioP2;P2;SDS_P1;SDS_P2;PMS_P1;PMS_P2;Temp;Humidity;BMP_temperature;BMP_pressure;BME280_temperature;BME280_humidity;BME280_pressure;Samples;Min_cycle;Max_cycle;Signal;HPM_P1;HPM_P2
2022/03/12 00:01:56;;;;;;;23.37;12.87;;;;;;;;;;5068454;27;20780;-36
2022/03/12 00:04:22;;;;;;;22.43;11.77;;;;;;;;;;5067608;28;20459;-36
2022/03/12 00:06:48;;;;;;;23.30;13.27;;;;;;;;;;5072179;27;20464;-36
2022/03/12 00:09:14;;;;;;;22.53;13.40;;;;;;;;;;5072084;27;20420;-36
2022/03/12 00:11:51;;;;;;;22.30;13.27;;;;;;;;;;5069294;28;20435;-36
2022/03/12 00:14:20;;;;;;;22.30;12.70;;;;;;;;;;5069965;27;20415;-36
2022/03/12 00:16:48;;;;;;;22.23;12.60;;;;;;;;;;5067768;28;20858;-36
2022/03/12 00:19:15;;;;;;;21.57;12.37;;;;;;;;;;5069781;27;20514;-36
2022/03/12 00:21:42;;;;;;;24.77;12.40;;;;;;;;;;5070874;27;20448;-36
2022/03/12 00:24:08;;;;;;;19.30;11.63;;;;;;;;;;5072067;27;22531;-36
2022/03/12 00:26:40;;;;;;;21.37;13.20;;;;;;;;;;5070452;27;20428;-36
2022/03/12 00:29:14;;;;;;;22.50;12.87;;;;;;;;;;5068242;27;21177;-36
2022/03/12 00:31:40;;;;;;;20.80;12.20;;;;;;;;;;5067708;27;20925;-36
2022/03/12 00:34:06;;;;;;;19.70;11.80;;;;;;;;;;5070481;27;21177;-36
2022/03/12 00:36:32;;;;;;;23.23;12.67;;;;;;;;;;5070743;27;20481;-36
2022/03/12 00:38:58;;;;;;;21.37;12.57;;;;;;;;;;5069616;27;20790;-36
2022/03/12 00:41:25;;;;;;;20.37;12.77;;;;;;;;;;5068285;27;20556;-36
2022/03/12 00:43:52;;;;;;;22.70;12.77;;;;;;;;;;5066929;27;20583;-36
2022/03/12 00:46:20;;;;;;;20.03;12.53;;;;;;;;;;5067301;27;21013;-36
2022/03/12 00:48:46;;;;;;;21.57;13.00;;;;;;;;;;5071802;27;20500;-36
2022/03/12 00:51:12;;;;;;;20.70;12.17;;;;;;;;;;5069169;27;20431;-36
2022/03/12 00:53:39;;;;;;;19.00;11.87;;;;;;;;;;5068236;28;20775;-36
2022/03/12 00:56:06;;;;;;;21.53;12.03;;;;;;;;;;5067942;27;20822;-36
2022/03/12 00:58:32;;;;;;;19.70;12.27;;;;;;;;;;5071662;27;20416;-36
2022/03/12 01:00:58;;;;;;;21.47;11.90;;;;;;;;;;5069120;27;21140;-36
2022/03/12 01:03:25;;;;;;;19.97;11.60;;;;;;;;;;5063864;28;20423;-36
2022/03/12 01:05:51;;;;;;;21.50;12.17;;;;;;;;;;5069035;27;20925;-36
2022/03/12 01:08:22;;;;;;;20.43;12.60;;;;;;;;;;5068430;28;20870;-36
2022/03/12 01:10:48;;;;;;;21.77;11.87;;;;;;;;;;5071435;28;20476;-37
2022/03/12 01:13:14;;;;;;;21.63;11.53;;;;;;;;;;5070575;27;20539;-36
2022/03/12 01:15:41;;;;;;;19.90;11.67;;;;;;;;;;5066690;27;20860;-36
2022/03/12 01:18:13;;;;;;;20.03;12.23;;;;;;;;;;5064875;27;20943;-36
2022/03/12 01:20:40;;;;;;;19.87;12.17;;;;;;;;;;5069132;27;20854;-36
2022/03/12 01:23:07;;;;;;;20.83;11.97;;;;;;;;;;5071349;27;20782;-36
2022/03/12 01:25:33;;;;;;;24.30;12.97;;;;;;;;;;5068690;27;21048;-36
2022/03/12 01:27:59;;;;;;;22.83;11.70;;;;;;;;;;5066321;27;20925;-36
2022/03/12 01:30:27;;;;;;;19.10;12.17;;;;;;;;;;5068167;27;20511;-36
2022/03/12 01:32:53;;;;;;;19.37;11.97;;;;;;;;;;5066347;27;20419;-36
2022/03/12 01:35:19;;;;;;;22.47;12.07;;;;;;;;;;5063998;27;20835;-36
2022/03/12 01:37:46;;;;;;;26.30;11.63;;;;;;;;;;5068306;28;20534;-36
2022/03/12 01:40:12;;;;;;;26.30;13.23;;;;;;;;;;5069599;27;20423;-36
2022/03/12 01:42:38;;;;;;;25.20;13.07;;;;;;;;;;5069758;28;20416;-36
2022/03/12 01:45:09;;;;;;;23.17;12.73;;;;;;;;;;5069920;28;20859;-36
2022/03/12 01:47:35;;;;;;;21.57;12.87;;;;;;;;;;5043924;28;20856;-36
2022/03/12 01:50:01;;;;;;;21.17;13.40;;;;;;;;;;5066585;28;20929;-36
2022/03/12 01:52:29;;;;;;;27.10;14.10;;;;;;;;;;5066741;27;20423;-36
2022/03/12 01:54:55;;;;;;;25.23;14.17;;;;;;;;;;5065916;27;20859;-36
2022/03/12 01:57:22;;;;;;;21.47;13.43;;;;;;;;;;5067914;27;20427;-36
2022/03/12 01:59:48;;;;;;;26.10;14.77;;;;;;;;;;5072602;27;21013;-36
2022/03/12 02:02:15;;;;;;;30.50;15.33;;;;;;;;;;5066788;27;20896;-36
2022/03/12 02:04:49;;;;;;;26.47;15.40;;;;;;;;;;5065091;27;20992;-36
2022/03/12 02:07:16;;;;;;;27.33;15.80;;;;;;;;;;5064513;27;21134;-36
2022/03/12 02:09:42;;;;;;;30.53;16.27;;;;;;;;;;5069927;27;20825;-36
2022/03/12 02:12:08;;;;;;;29.07;16.43;;;;;;;;;;5066843;28;20421;-36
2022/03/12 02:14:36;;;;;;;29.97;18.50;;;;;;;;;;5067000;28;20430;-36
2022/03/12 02:17:02;;;;;;;35.60;19.17;;;;;;;;;;5064562;28;20523;-36
2022/03/12 02:19:30;;;;;;;38.50;19.73;;;;;;;;;;5067124;28;21191;-36
2022/03/12 02:21:57;;;;;;;37.70;20.43;;;;;;;;;;5068802;28;20705;-36
2022/03/12 02:24:24;;;;;;;36.73;20.37;;;;;;;;;;5064745;27;20444;-36
2022/03/12 02:26:51;;;;;;;37.43;20.70;;;;;;;;;;5069132;28;21300;-35
2022/03/12 02:29:21;;;;;;;40.90;22.17;;;;;;;;;;5068657;27;21056;-36
2022/03/12 02:31:51;;;;;;;42.47;21.70;;;;;;;;;;5067147;28;20489;-36
2022/03/12 02:34:22;;;;;;;41.63;21.73;;;;;;;;;;5061957;28;20435;-36
2022/03/12 02:36:50;;;;;;;42.87;21.83;;;;;;;;;;5066612;28;20416;-36
2022/03/12 02:39:16;;;;;;;39.63;22.73;;;;;;;;;;5066542;28;20420;-36
2022/03/12 02:41:43;;;;;;;37.03;21.10;;;;;;;;;;5063930;28;20424;-36
2022/03/12 02:44:10;;;;;;;37.00;21.40;;;;;;;;;;5064265;28;20889;-36
2022/03/12 02:46:40;;;;;;;39.63;21.97;;;;;;;;;;5063531;28;20431;-37
2022/03/12 02:49:06;;;;;;;37.57;21.23;;;;;;;;;;5065293;28;20423;-36
2022/03/12 02:51:34;;;;;;;36.50;21.07;;;;;;;;;;5067229;28;20451;-36
2022/03/12 02:54:00;;;;;;;38.53;20.63;;;;;;;;;;5067308;28;20601;-36
2022/03/12 02:56:26;;;;;;;39.33;20.40;;;;;;;;;;5066471;28;20458;-36
2022/03/12 02:58:53;;;;;;;36.20;21.00;;;;;;;;;;5066504;28;20498;-36
2022/03/12 03:01:20;;;;;;;38.10;21.53;;;;;;;;;;5065292;28;20486;-36
2022/03/12 03:03:46;;;;;;;36.83;21.00;;;;;;;;;;5066558;28;20992;-36
2022/03/12 03:06:14;;;;;;;36.73;21.30;;;;;;;;;;5071015;28;20433;-36
2022/03/12 03:08:40;;;;;;;36.13;21.77;;;;;;;;;;5068163;28;20416;-36
2022/03/12 03:11:11;;;;;;;34.37;20.77;;;;;;;;;;5069065;28;20501;-36
2022/03/12 03:13:38;;;;;;;38.20;21.70;;;;;;;;;;5063298;28;20660;-36
2022/03/12 03:16:08;;;;;;;35.03;20.33;;;;;;;;;;5064808;28;20547;-36
2022/03/12 03:18:39;;;;;;;32.87;20.00;;;;;;;;;;5065575;28;20906;-36
2022/03/12 03:21:06;;;;;;;34.83;20.40;;;;;;;;;;5068683;28;21280;-36
2022/03/12 03:23:33;;;;;;;34.93;19.97;;;;;;;;;;5068103;28;20451;-36
2022/03/12 03:26:02;;;;;;;32.47;18.87;;;;;;;;;;5066442;28;20524;-36
2022/03/12 03:28:29;;;;;;;35.97;19.33;;;;;;;;;;5065936;28;20411;-36
2022/03/12 03:30:55;;;;;;;33.17;19.87;;;;;;;;;;5064214;28;20485;-36
2022/03/12 03:33:22;;;;;;;34.33;19.33;;;;;;;;;;5066568;28;20587;-36
2022/03/12 03:35:49;;;;;;;31.27;18.80;;;;;;;;;;5064894;28;20488;-36
2022/03/12 03:38:15;;;;;;;31.67;19.00;;;;;;;;;;5067229;28;20476;-36
2022/03/12 03:40:42;;;;;;;31.47;17.97;;;;;;;;;;5065746;28;21134;-36
2022/03/12 03:43:13;;;;;;;28.73;18.17;;;;;;;;;;5064619;28;20455;-36
2022/03/12 03:45:39;;;;;;;29.57;18.93;;;;;;;;;;5066144;28;20760;-36
2022/03/12 03:48:05;;;;;;;31.77;18.40;;;;;;;;;;5068554;28;21220;-36
2022/03/12 03:50:31;;;;;;;35.43;19.93;;;;;;;;;;5073020;27;20415;-36
2022/03/12 03:53:03;;;;;;;33.00;19.03;;;;;;;;;;5071962;28;20464;-36
2022/03/12 03:55:30;;;;;;;36.87;20.37;;;;;;;;;;5068013;28;20972;-36
2022/03/12 03:57:57;;;;;;;32.67;18.77;;;;;;;;;;5068533;27;20431;-36
2022/03/12 04:00:23;;;;;;;27.83;18.17;;;;;;;;;;5067147;27;20527;-36
2022/03/12 04:03:01;;;;;;;32.40;18.63;;;;;;;;;;5071111;28;20862;-36
2022/03/12 04:05:27;;;;;;;34.43;19.57;;;;;;;;;;5067711;27;21443;-36
2022/03/12 04:07:53;;;;;;;32.53;19.17;;;;;;;;;;5068062;27;20431;-36
2022/03/12 04:10:19;;;;;;;29.50;18.10;;;;;;;;;;5065674;27;20813;-36
2022/03/12 04:12:45;;;;;;;31.53;18.40;;;;;;;;;;5066170;27;20632;-36
2022/03/12 04:15:11;;;;;;;30.80;18.40;;;;;;;;;;5068592;27;20912;-36
2022/03/12 04:17:37;;;;;;;35.10;19.77;;;;;;;;;;5069080;27;20524;-37
2022/03/12 04:20:03;;;;;;;32.73;18.83;;;;;;;;;;5068893;27;20917;-36
2022/03/12 04:22:31;;;;;;;32.30;18.40;;;;;;;;;;5069490;28;20426;-36
2022/03/12 04:24:57;;;;;;;34.53;19.70;;;;;;;;;;5062412;28;20455;-36
2022/03/12 04:27:24;;;;;;;35.00;19.13;;;;;;;;;;5067453;27;20428;-38
2022/03/12 04:29:50;;;;;;;35.43;18.97;;;;;;;;;;5071591;27;20512;-36
2022/03/12 04:32:16;;;;;;;31.30;17.73;;;;;;;;;;5067263;27;20817;-36
2022/03/12 04:34:42;;;;;;;34.77;19.80;;;;;;;;;;5065469;28;20459;-36
2022/03/12 04:37:08;;;;;;;34.80;19.57;;;;;;;;;;5066405;28;20470;-36
2022/03/12 04:39:35;;;;;;;37.90;20.43;;;;;;;;;;5066844;27;20524;-36
2022/03/12 04:42:01;;;;;;;37.27;20.20;;;;;;;;;;5070209;27;20867;-36
2022/03/12 04:44:27;;;;;;;35.60;20.43;;;;;;;;;;5067116;28;20451;-36
2022/03/12 04:46:53;;;;;;;33.03;18.87;;;;;;;;;;5067350;27;20643;-36
2022/03/12 04:49:20;;;;;;;35.27;19.23;;;;;;;;;;5066772;27;20736;-36
2022/03/12 04:51:46;;;;;;;40.90;22.07;;;;;;;;;;5069151;27;20713;-36
2022/03/12 04:54:12;;;;;;;36.27;19.40;;;;;;;;;;5071855;27;20500;-36
2022/03/12 04:56:38;;;;;;;32.87;18.37;;;;;;;;;;5067257;27;20437;-36
2022/03/12 04:59:04;;;;;;;35.87;18.13;;;;;;;;;;5066287;28;20424;-37
2022/03/12 05:01:30;;;;;;;30.97;17.17;;;;;;;;;;5066156;27;20432;-36
2022/03/12 05:03:56;;;;;;;34.63;19.97;;;;;;;;;;5065564;27;20420;-36
2022/03/12 05:06:23;;;;;;;37.23;18.90;;;;;;;;;;5069877;27;20423;-36
2022/03/12 05:08:49;;;;;;;28.20;17.33;;;;;;;;;;5071174;27;20866;-36
2022/03/12 05:11:15;;;;;;;34.13;17.17;;;;;;;;;;5065843;27;21085;-36
2022/03/12 05:13:41;;;;;;;33.33;18.43;;;;;;;;;;5065587;27;20420;-36
2022/03/12 05:16:08;;;;;;;31.77;17.50;;;;;;;;;;5061644;28;20767;-37
2022/03/12 05:18:35;;;;;;;31.23;17.83;;;;;;;;;;5070099;27;20915;-36
2022/03/12 05:21:02;;;;;;;33.00;17.97;;;;;;;;;;5067117;27;20435;-37
2022/03/12 05:23:28;;;;;;;32.07;17.20;;;;;;;;;;5067140;27;20437;-37
2022/03/12 05:25:54;;;;;;;34.43;17.53;;;;;;;;;;5066230;27;20973;-36
2022/03/12 05:28:26;;;;;;;31.77;17.47;;;;;;;;;;5068188;27;20668;-36
2022/03/12 05:30:58;;;;;;;36.10;18.23;;;;;;;;;;5067997;28;21097;-36
2022/03/12 05:33:24;;;;;;;34.90;18.47;;;;;;;;;;5069008;27;20912;-36
2022/03/12 05:35:54;;;;;;;34.80;19.00;;;;;;;;;;5062921;27;20851;-36
2022/03/12 05:38:21;;;;;;;37.20;20.10;;;;;;;;;;5068979;27;20427;-36
2022/03/12 05:40:48;;;;;;;37.83;20.63;;;;;;;;;;5065854;28;20500;-37
2022/03/12 05:43:15;;;;;;;36.63;20.83;;;;;;;;;;5068817;28;20807;-37
2022/03/12 05:45:48;;;;;;;39.10;21.37;;;;;;;;;;5068434;27;20605;-36
2022/03/12 05:48:15;;;;;;;36.37;21.40;;;;;;;;;;5044653;27;20423;-36
2022/03/12 05:50:42;;;;;;;34.20;20.47;;;;;;;;;;5063056;28;20427;-37
2022/03/12 05:53:09;;;;;;;39.40;22.27;;;;;;;;;;5065598;27;20550;-36
2022/03/12 05:55:38;;;;;;;36.37;21.33;;;;;;;;;;5048177;28;20955;-36
2022/03/12 05:58:04;;;;;;;37.10;21.83;;;;;;;;;;5070287;28;21115;-36
2022/03/12 06:00:32;;;;;;;36.70;19.93;;;;;;;;;;5069464;28;20427;-36
2022/03/12 06:02:59;;;;;;;38.63;21.53;;;;;;;;;;5065258;28;21367;-36
2022/03/12 06:05:25;;;;;;;40.67;21.70;;;;;;;;;;5066311;27;20460;-36
2022/03/12 06:07:52;;;;;;;42.40;22.93;;;;;;;;;;5037424;27;20435;-36
2022/03/12 06:10:20;;;;;;;41.23;22.13;;;;;;;;;;5003479;28;20889;-38
2022/03/12 06:12:46;;;;;;;39.03;20.70;;;;;;;;;;5002165;28;20430;-36
2022/03/12 06:15:14;;;;;;;43.07;22.93;;;;;;;;;;5003787;28;20500;-36
2022/03/12 06:17:40;;;;;;;37.27;19.87;;;;;;;;;;5007677;28;20441;-36
2022/03/12 06:20:10;;;;;;;42.20;22.03;;;;;;;;;;5008569;28;20585;-36
2022/03/12 06:22:36;;;;;;;34.40;19.47;;;;;;;;;;5009562;28;20422;-36
2022/03/12 06:25:02;;;;;;;38.90;19.97;;;;;;;;;;5004276;28;20466;-37
2022/03/12 06:27:28;;;;;;;33.83;19.27;;;;;;;;;;5005994;28;20728;-37
2022/03/12 06:29:56;;;;;;;32.93;18.53;;;;;;;;;;5004405;28;20576;-37
2022/03/12 06:32:22;;;;;;;44.03;21.50;;;;;;;;;;5005809;28;20426;-36
2022/03/12 06:34:48;;;;;;;43.93;21.13;;;;;;;;;;5002518;28;20755;-36
2022/03/12 06:37:15;;;;;;;41.87;20.60;;;;;;;;;;5006660;28;20703;-37
2022/03/12 06:39:41;;;;;;;37.20;20.20;;;;;;;;;;5008524;28;20511;-37
2022/03/12 06:42:07;;;;;;;35.20;19.10;;;;;;;;;;5006890;28;20982;-37
2022/03/12 06:44:36;;;;;;;35.30;20.13;;;;;;;;;;5010569;28;20454;-37
2022/03/12 06:47:04;;;;;;;34.10;19.43;;;;;;;;;;5005596;28;20798;-37
2022/03/12 06:49:30;;;;;;;38.27;19.90;;;;;;;;;;5000115;28;20857;-37
2022/03/12 06:51:56;;;;;;;32.37;19.07;;;;;;;;;;5002695;28;20524;-37
2022/03/12 06:54:22;;;;;;;32.50;18.77;;;;;;;;;;5007370;28;20430;-37
2022/03/12 06:56:49;;;;;;;38.47;20.50;;;;;;;;;;5008699;28;20820;-37
2022/03/12 06:59:15;;;;;;;35.93;20.03;;;;;;;;;;5006242;28;20430;-37
2022/03/12 07:01:41;;;;;;;31.73;19.03;;;;;;;;;;5005894;28;20994;-37
2022/03/12 07:04:08;;;;;;;31.23;19.07;;;;;;;;;;5007466;28;20433;-37
2022/03/12 07:06:35;;;;;;;36.33;19.50;;;;;;;;;;5008298;28;20425;-37
2022/03/12 07:09:01;;;;;;;32.20;19.20;;;;;;;;;;5007398;28;20870;-37
2022/03/12 07:11:28;;;;;;;35.43;19.50;;;;;;;;;;5005287;28;20854;-37
2022/03/12 07:13:54;;;;;;;35.07;20.17;;;;;;;;;;5000586;28;20722;-36
2022/03/12 07:16:20;;;;;;;32.20;18.97;;;;;;;;;;5003155;28;20430;-36
2022/03/12 07:18:46;;;;;;;31.83;19.33;;;;;;;;;;5008734;28;20891;-36
2022/03/12 07:21:12;;;;;;;29.20;17.33;;;;;;;;;;5007879;28;20421;-36
2022/03/12 07:23:39;;;;;;;33.03;18.33;;;;;;;;;;5011071;28;20580;-36
2022/03/12 07:26:05;;;;;;;30.60;17.23;;;;;;;;;;5007929;28;20458;-36
2022/03/12 07:28:32;;;;;;;30.47;17.70;;;;;;;;;;5010623;28;20418;-36
2022/03/12 07:30:58;;;;;;;30.80;18.63;;;;;;;;;;5015979;28;20480;-37
2022/03/12 07:33:24;;;;;;;28.07;17.60;;;;;;;;;;5011888;28;22010;-37
2022/03/12 07:35:51;;;;;;;31.37;18.07;;;;;;;;;;5011881;28;20414;-37
2022/03/12 07:38:17;;;;;;;33.40;18.90;;;;;;;;;;5006333;28;20422;-37
2022/03/12 07:40:43;;;;;;;30.10;18.07;;;;;;;;;;5014977;28;20432;-37
2022/03/12 07:43:09;;;;;;;33.97;19.87;;;;;;;;;;5014109;28;20750;-37
2022/03/12 07:45:35;;;;;;;31.83;18.50;;;;;;;;;;5007834;28;20535;-37
2022/03/12 07:48:02;;;;;;;28.90;18.83;;;;;;;;;;5007642;28;20418;-37
2022/03/12 07:50:28;;;;;;;37.27;19.00;;;;;;;;;;5009328;28;20422;-37
2022/03/12 07:52:54;;;;;;;35.93;18.60;;;;;;;;;;5002050;28;20493;-37
2022/03/12 07:55:21;;;;;;;29.53;18.00;;;;;;;;;;5008372;28;20912;-37
2022/03/12 07:57:47;;;;;;;29.73;17.50;;;;;;;;;;5008928;28;20449;-37
2022/03/12 08:00:14;;;;;;;28.10;16.03;;;;;;;;;;4999258;28;20594;-37
2022/03/12 08:02:41;;;;;;;26.73;16.83;;;;;;;;;;5011773;28;20874;-37
2022/03/12 08:05:08;;;;;;;28.53;17.33;;;;;;;;;;5013661;28;20920;-38
2022/03/12 08:07:34;;;;;;;25.80;16.70;;;;;;;;;;5012955;28;20883;-37
2022/03/12 08:10:00;;;;;;;26.23;15.17;;;;;;;;;;5012263;28;20990;-37
2022/03/12 08:12:30;;;;;;;25.73;14.97;;;;;;;;;;5010003;28;20419;-37
2022/03/12 08:14:57;;;;;;;22.90;15.27;;;;;;;;;;5011668;28;21126;-37
2022/03/12 08:17:24;;;;;;;31.27;15.83;;;;;;;;;;5011684;28;20435;-37
2022/03/12 08:19:50;;;;;;;24.43;15.70;;;;;;;;;;5013561;28;20980;-37
2022/03/12 08:22:17;;;;;;;27.93;15.70;;;;;;;;;;5011481;28;20526;-38
2022/03/12 08:24:43;;;;;;;25.37;15.47;;;;;;;;;;5012132;28;20791;-38
2022/03/12 08:27:09;;;;;;;25.50;15.53;;;;;;;;;;5013817;28;20840;-38
2022/03/12 08:29:35;;;;;;;29.10;15.83;;;;;;;;;;5010068;28;20700;-37
2022/03/12 08:32:03;;;;;;;21.70;15.40;;;;;;;;;;5012521;28;20423;-38
2022/03/12 08:34:29;;;;;;;25.97;15.67;;;;;;;;;;5010136;28;20895;-38
2022/03/12 08:36:55;;;;;;;24.43;15.43;;;;;;;;;;5009546;28;20488;-37
2022/03/12 08:39:21;;;;;;;27.00;15.33;;;;;;;;;;5010785;28;20431;-38
2022/03/12 08:41:47;;;;;;;25.10;15.93;;;;;;;;;;5012062;28;20935;-37
2022/03/12 08:44:14;;;;;;;26.60;15.40;;;;;;;;;;5013890;28;20427;-38
2022/03/12 08:46:42;;;;;;;26.57;16.17;;;;;;;;;;5011803;28;20483;-38
2022/03/12 08:49:08;;;;;;;23.87;16.17;;;;;;;;;;5013496;28;20578;-38
2022/03/12 08:51:35;;;;;;;25.80;16.17;;;;;;;;;;5008750;28;20421;-38
2022/03/12 08:54:02;;;;;;;27.03;16.43;;;;;;;;;;5008937;28;20454;-37
2022/03/12 08:56:28;;;;;;;22.97;14.27;;;;;;;;;;5007014;28;20442;-38
2022/03/12 08:58:54;;;;;;;23.73;14.57;;;;;;;;;;5013786;28;21071;-37
2022/03/12 09:01:21;;;;;;;23.93;15.90;;;;;;;;;;5009095;28;20687;-37
2022/03/12 09:03:47;;;;;;;23.87;14.07;;;;;;;;;;5007964;28;20418;-37
2022/03/12 09:06:13;;;;;;;25.60;15.87;;;;;;;;;;5010524;28;20523;-38
2022/03/12 09:08:40;;;;;;;24.37;14.83;;;;;;;;;;5013063;28;20864;-37
2022/03/12 09:11:06;;;;;;;21.10;15.10;;;;;;;;;;5011123;28;20422;-38
2022/03/12 09:13:32;;;;;;;23.23;15.80;;;;;;;;;;5009329;28;20488;-37
2022/03/12 09:15:58;;;;;;;24.43;14.87;;;;;;;;;;5009446;28;20302;-37
2022/03/12 09:18:25;;;;;;;22.40;15.17;;;;;;;;;;5008328;28;20419;-37
2022/03/12 09:20:51;;;;;;;25.30;15.30;;;;;;;;;;5010778;28;20179;-37
2022/03/12 09:23:18;;;;;;;21.50;14.53;;;;;;;;;;5013743;28;20422;-37
2022/03/12 09:25:45;;;;;;;23.73;14.73;;;;;;;;;;5009494;28;20801;-37
2022/03/12 09:28:13;;;;;;;24.03;14.90;;;;;;;;;;5008805;28;20655;-38
2022/03/12 09:30:39;;;;;;;26.23;15.80;;;;;;;;;;5006660;28;20327;-37
2022/03/12 09:33:06;;;;;;;24.20;14.43;;;;;;;;;;5009768;28;20521;-38
2022/03/12 09:35:32;;;;;;;21.97;14.73;;;;;;;;;;5011370;28;20797;-36
2022/03/12 09:37:59;;;;;;;23.07;14.13;;;;;;;;;;5010967;28;20261;-37
2022/03/12 09:40:25;;;;;;;24.87;15.67;;;;;;;;;;5015157;28;20191;-37
2022/03/12 09:42:51;;;;;;;25.30;15.23;;;;;;;;;;5010507;28;20689;-37
2022/03/12 09:45:20;;;;;;;23.23;15.07;;;;;;;;;;5007490;28;21375;-37
2022/03/12 09:47:46;;;;;;;24.70;15.47;;;;;;;;;;5006383;28;20545;-37
2022/03/12 09:50:13;;;;;;;22.03;15.07;;;;;;;;;;5013270;28;20719;-37
2022/03/12 09:52:40;;;;;;;23.60;14.90;;;;;;;;;;5013549;28;20474;-37
2022/03/12 09:55:06;;;;;;;23.40;15.23;;;;;;;;;;5009585;28;20687;-37
2022/03/12 09:57:34;;;;;;;23.63;15.63;;;;;;;;;;5005364;28;20451;-37
2022/03/12 10:00:01;;;;;;;24.10;15.77;;;;;;;;;;5007000;28;20498;-37
2022/03/12 10:02:27;;;;;;;27.43;16.87;;;;;;;;;;5009266;28;20765;-37
2022/03/12 10:04:53;;;;;;;29.67;16.77;;;;;;;;;;5009380;28;20230;-37
2022/03/12 10:07:19;;;;;;;26.13;17.77;;;;;;;;;;5011170;28;20682;-37
2022/03/12 10:09:45;;;;;;;28.90;16.80;;;;;;;;;;5012791;28;20954;-37
2022/03/12 10:12:11;;;;;;;25.87;16.97;;;;;;;;;;5010366;28;20625;-37
2022/03/12 10:14:37;;;;;;;23.57;15.20;;;;;;;;;;5007720;28;20783;-37
2022/03/12 10:17:04;;;;;;;21.53;15.70;;;;;;;;;;5009126;28;21098;-37
2022/03/12 10:19:31;;;;;;;23.93;15.40;;;;;;;;;;5015929;28;20184;-37
2022/03/12 10:21:57;;;;;;;20.87;14.33;;;;;;;;;;5008699;28;20718;-37
2022/03/12 10:24:26;;;;;;;23.47;14.37;;;;;;;;;;5005904;28;20723;-37
2022/03/12 10:26:53;;;;;;;22.30;13.60;;;;;;;;;;5002959;28;20898;-37
2022/03/12 10:29:19;;;;;;;18.93;13.97;;;;;;;;;;5006420;28;20184;-37
2022/03/12 10:31:45;;;;;;;19.10;13.87;;;;;;;;;;5008092;28;20175;-38
2022/03/12 10:34:18;;;;;;;17.03;11.17;;;;;;;;;;5006135;28;20660;-37
2022/03/12 10:36:44;;;;;;;15.20;11.27;;;;;;;;;;5004642;28;20600;-37
2022/03/12 10:39:10;;;;;;;15.73;9.80;;;;;;;;;;5009477;28;20387;-37
2022/03/12 10:41:37;;;;;;;18.63;11.73;;;;;;;;;;5007896;28;20859;-36
2022/03/12 10:44:04;;;;;;;18.63;13.10;;;;;;;;;;5006202;28;20168;-36
2022/03/12 10:46:31;;;;;;;20.03;12.97;;;;;;;;;;5008705;28;20199;-37
2022/03/12 10:48:58;;;;;;;19.87;13.63;;;;;;;;;;5011977;28;20226;-37
2022/03/12 10:51:28;;;;;;;20.47;13.30;;;;;;;;;;5014181;28;20168;-37
2022/03/12 10:54:04;;;;;;;22.03;14.67;;;;;;;;;;5009808;28;20177;-36
2022/03/12 10:56:43;;;;;;;21.30;14.17;;;;;;;;;;5012578;28;20172;-38
2022/03/12 10:59:28;;;;;;;20.03;14.20;;;;;;;;;;5018555;28;21155;-38
2022/03/12 11:01:55;;;;;;;21.87;14.23;;;;;;;;;;5014991;28;20295;-37
2022/03/12 11:04:29;;;;;;;21.77;14.40;;;;;;;;;;5011858;28;20318;-38
2022/03/12 11:06:57;;;;;;;22.93;14.93;;;;;;;;;;5013157;28;20735;-36
2022/03/12 11:09:37;;;;;;;23.83;16.13;;;;;;;;;;5014077;28;20501;-37
2022/03/12 11:12:07;;;;;;;27.17;16.53;;;;;;;;;;5016546;28;20176;-37
2022/03/12 11:14:33;;;;;;;26.83;17.27;;;;;;;;;;5010498;28;20173;-37
2022/03/12 11:16:59;;;;;;;23.60;15.97;;;;;;;;;;5013392;28;20181;-37
2022/03/12 11:19:39;;;;;;;25.30;17.00;;;;;;;;;;5013305;28;20433;-36
2022/03/12 11:22:10;;;;;;;27.03;16.60;;;;;;;;;;5017237;28;20176;-37
2022/03/12 11:24:47;;;;;;;25.73;17.57;;;;;;;;;;5012943;28;20299;-37
2022/03/12 11:27:28;;;;;;;26.60;17.20;;;;;;;;;;5012359;28;20745;-37
2022/03/12 11:30:08;;;;;;;25.80;17.13;;;;;;;;;;5014777;28;20736;-37
2022/03/12 11:32:36;;;;;;;24.83;17.10;;;;;;;;;;5015541;28;21066;-36
2022/03/12 11:35:06;;;;;;;23.57;16.80;;;;;;;;;;5014193;28;20422;-37
2022/03/12 11:37:36;;;;;;;27.00;17.13;;;;;;;;;;5008393;28;20180;-37
2022/03/12 11:40:03;;;;;;;27.33;15.77;;;;;;;;;;5013764;28;20173;-37
2022/03/12 11:42:33;;;;;;;24.03;16.33;;;;;;;;;;5011050;28;20176;-36
2022/03/12 11:45:00;;;;;;;22.30;15.53;;;;;;;;;;5014437;28;20561;-36
2022/03/12 11:47:31;;;;;;;26.13;16.33;;;;;;;;;;5012573;28;20180;-37
2022/03/12 11:49:57;;;;;;;27.93;16.53;;;;;;;;;;5010926;28;20206;-37
2022/03/12 11:52:24;;;;;;;22.93;15.30;;;;;;;;;;5014853;28;20168;-37
2022/03/12 11:54:54;;;;;;;23.80;15.33;;;;;;;;;;5015447;28;20258;-36
2022/03/12 11:57:24;;;;;;;23.83;14.60;;;;;;;;;;5013620;28;20292;-37
2022/03/12 11:59:50;;;;;;;23.50;15.90;;;;;;;;;;5011229;28;20608;-36
2022/03/12 12:02:31;;;;;;;27.00;17.13;;;;;;;;;;5012114;28;20735;-36
2022/03/12 12:04:59;;;;;;;25.67;15.83;;;;;;;;;;5016159;28;20196;-36
2022/03/12 12:07:31;;;;;;;23.17;16.33;;;;;;;;;;5013148;28;20557;-36
2022/03/12 12:09:58;;;;;;;26.13;17.37;;;;;;;;;;5009769;28;20172;-36
2022/03/12 12:12:27;;;;;;;25.27;16.73;;;;;;;;;;5013103;28;20179;-37
2022/03/12 12:14:57;;;;;;;25.27;17.13;;;;;;;;;;5011237;28;20184;-37
2022/03/12 12:17:24;;;;;;;26.03;16.10;;;;;;;;;;5011558;28;20350;-37
2022/03/12 12:19:50;;;;;;;26.23;16.77;;;;;;;;;;5007883;28;20631;-37
2022/03/12 12:22:18;;;;;;;26.80;16.77;;;;;;;;;;5010685;28;21380;-38
2022/03/12 12:24:44;;;;;;;27.10;16.53;;;;;;;;;;5004330;28;20660;-37
2022/03/12 12:27:12;;;;;;;25.70;16.70;;;;;;;;;;5011586;28;20199;-36
2022/03/12 12:29:41;;;;;;;24.90;16.40;;;;;;;;;;5009426;28;20853;-37
2022/03/12 12:32:08;;;;;;;26.10;17.63;;;;;;;;;;5010015;28;20176;-36
2022/03/12 12:34:35;;;;;;;28.37;17.60;;;;;;;;;;5008094;28;20380;-36
2022/03/12 12:37:02;;;;;;;26.60;17.60;;;;;;;;;;5013992;28;20295;-36
2022/03/12 12:39:28;;;;;;;24.67;17.07;;;;;;;;;;5012376;28;20874;-36
2022/03/12 12:41:58;;;;;;;28.63;17.70;;;;;;;;;;5010780;28;20215;-37
2022/03/12 12:44:40;;;;;;;25.33;17.73;;;;;;;;;;5008766;28;20635;-36
2022/03/12 12:47:07;;;;;;;24.87;16.30;;;;;;;;;;5004970;28;20462;-36
2022/03/12 12:49:36;;;;;;;24.90;16.90;;;;;;;;;;5004095;28;20593;-36
2022/03/12 12:52:02;;;;;;;26.07;17.03;;;;;;;;;;5010784;28;20431;-36
2022/03/12 12:54:53;;;;;;;23.60;16.77;;;;;;;;;;5005620;28;20180;-36
2022/03/12 12:57:19;;;;;;;24.17;17.27;;;;;;;;;;5000413;28;20199;-36
2022/03/12 12:59:48;;;;;;;24.87;17.80;;;;;;;;;;5008437;28;20998;-36
2022/03/12 13:02:14;;;;;;;22.63;16.23;;;;;;;;;;5013525;28;20212;-37
2022/03/12 13:04:45;;;;;;;24.13;16.70;;;;;;;;;;5010144;28;20176;-36
2022/03/12 13:07:21;;;;;;;28.93;17.10;;;;;;;;;;5000450;28;20226;-37
2022/03/12 13:09:50;;;;;;;26.17;17.30;;;;;;;;;;5005339;28;20612;-36
2022/03/12 13:12:16;;;;;;;23.63;16.43;;;;;;;;;;5010041;28;20573;-37
2022/03/12 13:14:43;;;;;;;25.73;17.07;;;;;;;;;;5016186;28;20378;-38
2022/03/12 13:17:11;;;;;;;25.13;16.27;;;;;;;;;;5012131;28;20180;-36
2022/03/12 13:19:44;;;;;;;24.53;17.00;;;;;;;;;;5009703;28;20300;-37
2022/03/12 13:22:17;;;;;;;26.67;17.80;;;;;;;;;;5010515;28;20261;-37
2022/03/12 13:24:43;;;;;;;28.30;19.23;;;;;;;;;;5010353;28;20211;-37
2022/03/12 13:27:16;;;;;;;33.57;21.17;;;;;;;;;;5010305;28;20187;-37
2022/03/12 13:29:42;;;;;;;28.43;18.53;;;;;;;;;;5010718;28;20164;-37
2022/03/12 13:32:17;;;;;;;24.83;17.77;;;;;;;;;;5008189;28;20595;-37
2022/03/12 13:34:43;;;;;;;25.10;17.33;;;;;;;;;;5008392;28;20298;-38
2022/03/12 13:37:12;;;;;;;26.13;17.20;;;;;;;;;;5012088;28;20287;-37
2022/03/12 13:39:38;;;;;;;25.03;16.23;;;;;;;;;;5011845;28;20532;-37
2022/03/12 13:42:04;;;;;;;22.43;15.90;;;;;;;;;;5006659;28;20184;-37
2022/03/12 13:44:30;;;;;;;24.97;15.93;;;;;;;;;;5009131;28;20265;-37
2022/03/12 13:46:56;;;;;;;30.43;17.17;;;;;;;;;;5007327;28;20659;-37
2022/03/12 13:49:22;;;;;;;23.17;17.30;;;;;;;;;;5012786;28;20199;-35
2022/03/12 13:51:51;;;;;;;24.20;16.83;;;;;;;;;;5009478;28;20270;-36
2022/03/12 13:54:17;;;;;;;25.27;18.00;;;;;;;;;;5006431;28;20195;-36
2022/03/12 13:56:44;;;;;;;22.07;16.13;;;;;;;;;;5007446;28;20654;-36
2022/03/12 13:59:13;;;;;;;23.40;16.83;;;;;;;;;;5009691;28;20176;-36
2022/03/12 14:01:43;;;;;;;24.63;16.30;;;;;;;;;;5010087;28;20218;-36
2022/03/12 14:04:17;;;;;;;24.03;16.57;;;;;;;;;;5005989;28;20706;-36
2022/03/12 14:06:44;;;;;;;21.77;16.00;;;;;;;;;;5008638;28;20835;-36
2022/03/12 14:09:11;;;;;;;22.27;15.60;;;;;;;;;;5007156;28;20207;-36
2022/03/12 14:11:42;;;;;;;23.23;16.07;;;;;;;;;;5009212;28;20188;-36
2022/03/12 14:14:10;;;;;;;22.70;16.10;;;;;;;;;;5009591;28;20276;-36
2022/03/12 14:16:46;;;;;;;26.43;16.53;;;;;;;;;;5008542;28;20183;-36
2022/03/12 14:19:15;;;;;;;25.63;16.70;;;;;;;;;;5011616;28;20549;-36